Time;durP1;ratioP1;P1;durP2;ratioP2;P2;SDS_P1;SDS_P2;PMS_P1;PMS_P2;Temp;Humidity;BMP_temperature;BMP_pressure;BME280_temperature;BME280_humidity;BME280_pressure;Samples;Min_cycle;Max_cycle;Signal;HPM_P1;HPM_P2
2022/10/08 00:00:24;;;;;;;;;;;;;;;20.64;45.00;101718.12;102062;1330;60527;-81
2022/10/08 00:02:49;;;;;;;;;;;;;;;20.63;45.16;101716.71;102148;1317;60440;-81
2022/10/08 00:05:15;;;;;;;;;;;;;;;20.63;45.18;101712.42;102151;1326;60578;-81
2022/10/08 00:07:43;;;;;;;;;;;;;;;20.63;45.10;101708.48;102130;1326;60492;-81
2022/10/08 00:10:08;;;;;;;;;;;;;;;20.63;45.20;101703.50;102110;1323;61108;-81
2022/10/08 00:12:34;;;;;;;;;;;;;;;20.63;45.21;101702.95;102161;1325;60502;-81
2022/10/08 00:14:59;;;;;;;;;;;;;;;20.63;45.16;101696.70;102048;1327;60614;-81
2022/10/08 00:17:24;;;;;;;;;;;;;;;20.63;45.18;101697.75;102050;1333;60510;-81
2022/10/08 00:19:50;;;;;;;;;;;;;;;20.63;45.26;101692.23;102085;1320;60506;-81
2022/10/08 00:22:16;;;;;;;;;;;;;;;20.63;45.19;101686.16;102008;1327;60496;-81
2022/10/08 00:24:41;;;;;;;;;;;;;;;20.63;45.11;101684.89;102135;1332;60503;-81
2022/10/08 00:27:06;;;;;;;;;;;;;;;20.63;45.30;101683.80;102098;1326;60451;-81
2022/10/08 00:29:32;;;;;;;;;;;;;;;20.63;45.22;101681.84;102038;1316;60524;-81
2022/10/08 00:31:57;;;;;;;;;;;;;;;20.63;45.18;101684.55;102079;1326;60500;-81
2022/10/08 00:34:24;;;;;;;;;;;;;;;20.63;45.23;101684.00;102043;1326;60639;-81
2022/10/08 00:36:50;;;;;;;;;;;;;;;20.63;45.13;101680.43;102106;1333;72560;-81
2022/10/08 00:39:16;;;;;;;;;;;;;;;20.62;45.23;101682.06;102115;1317;60481;-81
2022/10/08 00:41:43;;;;;;;;;;;;;;;20.63;45.19;101677.40;102158;1326;60482;-81
2022/10/08 00:44:27;;;;;;;;;;;;;;;20.63;45.28;101672.55;102147;1326;60335;-81
2022/10/08 00:46:53;;;;;;;;;;;;;;;20.62;45.37;101666.50;102155;1330;72338;-81
2022/10/08 00:49:19;;;;;;;;;;;;;;;20.62;45.34;101667.60;102120;1325;60497;-81
2022/10/08 00:51:48;;;;;;;;;;;;;;;20.63;45.33;101664.52;102142;1332;60528;-81
2022/10/08 00:54:14;;;;;;;;;;;;;;;20.62;45.40;101661.51;102112;1327;61196;-81
2022/10/08 00:56:39;;;;;;;;;;;;;;;20.62;45.31;101663.99;102118;1328;60576;-80
2022/10/08 00:59:05;;;;;;;;;;;;;;;20.62;45.39;101662.05;102126;1330;60587;-80
2022/10/08 01:01:30;;;;;;;;;;;;;;;20.63;45.42;101664.52;102141;1326;60498;-80
2022/10/08 01:03:56;;;;;;;;;;;;;;;20.63;45.42;101661.29;102123;1332;61330;-81
2022/10/08 01:06:25;;;;;;;;;;;;;;;20.63;45.35;101658.27;102082;1326;60295;-81
2022/10/08 01:08:50;;;;;;;;;;;;;;;20.62;45.43;101658.63;102057;1332;71493;-81
2022/10/08 01:11:46;;;;;;;;;;;;;;;20.62;45.32;101655.61;102106;1326;60531;-80
2022/10/08 01:14:11;;;;;;;;;;;;;;;20.63;45.44;101648.60;102062;1323;61032;-80
2022/10/08 01:16:53;;;;;;;;;;;;;;;20.62;45.40;101650.95;102086;1330;60505;-80
2022/10/08 01:19:22;;;;;;;;;;;;;;;20.63;45.40;101648.75;102151;1332;72370;-80
2022/10/08 01:22:06;;;;;;;;;;;;;;;20.62;45.46;101650.58;102138;1327;72732;-81
2022/10/08 01:27:44;;;;;;;;;;;;;;;20.62;45.44;101647.02;101940;1329;60491;-81
2022/10/08 01:30:11;;;;;;;;;;;;;;;20.62;45.52;101644.15;102156;1326;72455;-81
2022/10/08 01:32:38;;;;;;;;;;;;;;;20.62;45.39;101640.41;102115;1332;60627;-81
2022/10/08 01:35:06;;;;;;;;;;;;;;;20.63;45.35;101640.89;102078;1334;60500;-81
2022/10/08 01:37:36;;;;;;;;;;;;;;;20.63;45.51;101642.88;101997;1326;60414;-81
2022/10/08 01:40:02;;;;;;;;;;;;;;;20.63;45.44;101640.56;102187;1330;71994;-81
2022/10/08 01:42:28;;;;;;;;;;;;;;;20.62;45.55;101638.80;102128;1326;60388;-80
2022/10/08 01:44:57;;;;;;;;;;;;;;;20.62;45.38;101633.06;102082;1326;61125;-80
2022/10/08 01:47:23;;;;;;;;;;;;;;;20.62;45.58;101634.85;102094;1328;60511;-80
2022/10/08 01:49:54;;;;;;;;;;;;;;;20.63;45.58;101638.77;102044;1331;60460;-80
2022/10/08 01:52:25;;;;;;;;;;;;;;;20.62;45.50;101635.23;102090;1332;73619;-80
2022/10/08 01:54:52;;;;;;;;;;;;;;;20.62;45.57;101638.80;102088;1318;60789;-80
2022/10/08 01:57:18;;;;;;;;;;;;;;;20.62;45.56;101638.60;102072;1332;61355;-80
2022/10/08 01:59:55;;;;;;;;;;;;;;;20.62;45.55;101636.85;102089;1332;60528;-80
2022/10/08 02:02:23;;;;;;;;;;;;;;;20.63;45.59;101638.60;102131;1321;74789;-80
2022/10/08 02:04:50;;;;;;;;;;;;;;;20.63;45.56;101637.70;102113;1327;60947;-80
2022/10/08 02:07:17;;;;;;;;;;;;;;;20.62;45.65;101636.29;102143;1326;61180;-80
2022/10/08 02:09:43;;;;;;;;;;;;;;;20.62;45.53;101633.63;102100;1319;73504;-80
2022/10/08 02:12:09;;;;;;;;;;;;;;;20.62;45.68;101634.69;102118;1326;60585;-80
2022/10/08 02:14:35;;;;;;;;;;;;;;;20.62;45.58;101634.14;102109;1327;60575;-81
2022/10/08 02:17:02;;;;;;;;;;;;;;;20.62;45.66;101633.08;102113;1331;60397;-81
2022/10/08 02:19:31;;;;;;;;;;;;;;;20.62;45.64;101630.41;102111;1320;60502;-81
2022/10/08 02:21:56;;;;;;;;;;;;;;;20.62;45.62;101632.02;102147;1332;74740;-81
2022/10/08 02:24:25;;;;;;;;;;;;;;;20.61;45.65;101630.95;102097;1331;60461;-81
2022/10/08 02:26:52;;;;;;;;;;;;;;;20.61;45.64;101638.11;102055;1334;61342;-80
2022/10/08 02:29:47;;;;;;;;;;;;;;;20.61;45.69;101638.13;102109;1326;72298;-80
2022/10/08 02:32:21;;;;;;;;;;;;;;;20.62;45.71;101641.15;101840;1328;75032;-80
2022/10/08 02:34:48;;;;;;;;;;;;;;;20.61;45.70;101637.77;101810;1335;61766;-80
2022/10/08 02:37:18;;;;;;;;;;;;;;;20.62;45.67;101641.16;101801;1338;61377;-80
2022/10/08 02:39:45;;;;;;;;;;;;;;;20.61;45.62;101644.56;101846;1332;73686;-80
2022/10/08 02:42:11;;;;;;;;;;;;;;;20.61;45.64;101642.61;101780;1340;74741;-80
2022/10/08 02:44:38;;;;;;;;;;;;;;;20.61;45.62;101643.85;101816;1336;60497;-81
2022/10/08 02:47:05;;;;;;;;;;;;;;;20.61;45.68;101644.56;101799;1332;60635;-80
2022/10/08 02:49:30;;;;;;;;;;;;;;;20.61;45.64;101645.83;101791;1338;60510;-81
2022/10/08 02:51:56;;;;;;;;;;;;;;;20.62;45.71;101646.35;101763;1341;60508;-80
2022/10/08 02:54:22;;;;;;;;;;;;;;;20.61;45.69;101648.16;101791;1339;60411;-80
2022/10/08 02:56:51;;;;;;;;;;;;;;;20.61;45.66;101643.33;101735;1340;60488;-80
2022/10/08 02:59:17;;;;;;;;;;;;;;;20.60;45.76;101648.00;101762;1340;71667;-80
2022/10/08 03:01:42;;;;;;;;;;;;;;;20.60;45.58;101642.64;101801;1324;60632;-80
2022/10/08 03:04:08;;;;;;;;;;;;;;;20.60;45.72;101640.85;101849;1337;60468;-81
2022/10/08 03:06:35;;;;;;;;;;;;;;;20.60;45.73;101638.72;101770;1335;60554;-80
2022/10/08 03:09:00;;;;;;;;;;;;;;;20.61;45.79;101639.02;101968;1327;60426;-81
2022/10/08 03:11:26;;;;;;;;;;;;;;;20.60;45.80;101639.08;102111;1326;61121;-81
2022/10/08 03:13:52;;;;;;;;;;;;;;;20.60;45.66;101635.84;102202;1332;60512;-80
2022/10/08 03:16:19;;;;;;;;;;;;;;;20.60;45.77;101633.89;102159;1332;60869;-81
2022/10/08 03:18:44;;;;;;;;;;;;;;;20.60;45.97;101629.95;102139;1320;60473;-80
2022/10/08 03:21:11;;;;;;;;;;;;;;;20.60;45.85;101630.67;102004;1329;60500;-80
2022/10/08 03:23:37;;;;;;;;;;;;;;;20.60;45.82;101631.74;102089;1333;73703;-80
2022/10/08 03:26:02;;;;;;;;;;;;;;;20.60;45.81;101629.05;102105;1332;60506;-80
2022/10/08 03:28:28;;;;;;;;;;;;;;;20.60;45.82;101628.71;102118;1332;59460;-80
2022/10/08 03:30:53;;;;;;;;;;;;;;;20.60;45.76;101628.89;102121;1329;60574;-80
2022/10/08 03:33:18;;;;;;;;;;;;;;;20.59;45.90;101629.45;102124;1326;60580;-81
2022/10/08 03:35:45;;;;;;;;;;;;;;;20.59;45.88;101627.86;102043;1330;60668;-80
2022/10/08 03:38:10;;;;;;;;;;;;;;;20.59;45.85;101625.36;102091;1320;60474;-80
2022/10/08 03:40:35;;;;;;;;;;;;;;;20.59;45.89;101623.00;102113;1317;60459;-80
2022/10/08 03:43:01;;;;;;;;;;;;;;;20.59;45.85;101621.59;102125;1318;60444;-80
2022/10/08 03:45:26;;;;;;;;;;;;;;;20.59;45.93;101618.89;102118;1326;60514;-80
2022/10/08 03:47:52;;;;;;;;;;;;;;;20.59;45.84;101623.92;102133;1327;73620;-80
2022/10/08 03:50:18;;;;;;;;;;;;;;;20.59;45.95;101621.44;102067;1329;60550;-80
2022/10/08 03:52:43;;;;;;;;;;;;;;;20.59;45.90;101620.52;102111;1326;60566;-81
2022/10/08 03:55:09;;;;;;;;;;;;;;;20.59;45.81;101623.03;102104;1333;60518;-81
2022/10/08 03:57:34;;;;;;;;;;;;;;;20.59;46.00;101623.23;102081;1330;60568;-81
2022/10/08 03:59:59;;;;;;;;;;;;;;;20.59;45.97;101622.85;102072;1330;61160;-81
2022/10/08 04:02:26;;;;;;;;;;;;;;;20.59;46.01;101626.29;102130;1326;60518;-81
2022/10/08 04:04:53;;;;;;;;;;;;;;;20.59;45.86;101624.29;102087;1324;60534;-80
2022/10/08 04:07:18;;;;;;;;;;;;;;;20.59;45.97;101622.52;102114;1325;61709;-80
2022/10/08 04:09:44;;;;;;;;;;;;;;;20.59;45.95;101619.12;102116;1332;60460;-81
2022/10/08 04:12:10;;;;;;;;;;;;;;;20.58;45.95;101619.50;102141;1327;60498;-81
2022/10/08 04:14:36;;;;;;;;;;;;;;;20.59;45.96;101621.10;102147;1332;60500;-81
2022/10/08 04:17:01;;;;;;;;;;;;;;;20.58;45.93;101618.77;102133;1329;60486;-81
2022/10/08 04:19:27;;;;;;;;;;;;;;;20.58;46.08;101614.48;102204;1326;60468;-80
2022/10/08 04:21:52;;;;;;;;;;;;;;;20.59;45.95;101615.19;102076;1319;60601;-80
2022/10/08 04:24:17;;;;;;;;;;;;;;;20.59;45.93;101615.54;102102;1318;60539;-80
2022/10/08 04:26:43;;;;;;;;;;;;;;;20.58;45.87;101610.38;102098;1327;60509;-81
2022/10/08 04:29:11;;;;;;;;;;;;;;;20.58;46.03;101611.45;102075;1327;60506;-80
2022/10/08 04:31:36;;;;;;;;;;;;;;;20.58;46.03;101608.41;102058;1321;60542;-80
2022/10/08 04:34:02;;;;;;;;;;;;;;;20.58;46.12;101608.40;102134;1326;61174;-80
2022/10/08 04:36:27;;;;;;;;;;;;;;;20.58;46.11;101607.50;102188;1326;60568;-80
2022/10/08 04:38:53;;;;;;;;;;;;;;;20.58;46.15;101606.80;102010;1327;60443;-80
2022/10/08 04:41:22;;;;;;;;;;;;;;;20.58;45.98;101608.04;102009;1330;60428;-80
2022/10/08 04:43:47;;;;;;;;;;;;;;;20.58;46.08;101609.11;102071;1323;73668;-80
2022/10/08 04:46:14;;;;;;;;;;;;;;;20.58;46.10;101609.13;102090;1326;60437;-80
2022/10/08 04:48:39;;;;;;;;;;;;;;;20.58;46.10;101610.38;102044;1332;60570;-80
2022/10/08 04:51:05;;;;;;;;;;;;;;;20.58;46.10;101611.09;102094;1317;60497;-81
2022/10/08 04:53:30;;;;;;;;;;;;;;;20.58;46.07;101612.52;102076;1326;60466;-82
2022/10/08 04:55:56;;;;;;;;;;;;;;;20.58;45.94;101611.45;102126;1326;60452;-80
2022/10/08 04:58:22;;;;;;;;;;;;;;;20.58;46.13;101614.66;102168;1325;61264;-80
2022/10/08 05:00:47;;;;;;;;;;;;;;;20.58;46.13;101612.71;102034;1329;60517;-81
2022/10/08 05:03:13;;;;;;;;;;;;;;;20.58;46.04;101615.20;102153;1326;60499;-81
2022/10/08 05:05:42;;;;;;;;;;;;;;;20.58;46.11;101615.76;102098;1326;60495;-81
2022/10/08 05:08:08;;;;;;;;;;;;;;;20.58;46.06;101615.93;102191;1313;60458;-81
2022/10/08 05:10:34;;;;;;;;;;;;;;;20.58;46.20;101616.09;102099;1326;60557;-81
2022/10/08 05:12:59;;;;;;;;;;;;;;;20.58;46.12;101617.18;102086;1327;60566;-81
2022/10/08 05:15:24;;;;;;;;;;;;;;;20.58;46.29;101622.72;102059;1329;60472;-81
2022/10/08 05:17:50;;;;;;;;;;;;;;;20.58;46.15;101620.91;102101;1326;60510;-81
2022/10/08 05:20:15;;;;;;;;;;;;;;;20.58;46.25;101619.33;102096;1329;61246;-81
2022/10/08 05:22:41;;;;;;;;;;;;;;;20.58;46.19;101620.21;102131;1330;60483;-81
2022/10/08 05:25:06;;;;;;;;;;;;;;;20.58;46.26;101619.68;102008;1329;60451;-81
2022/10/08 05:27:32;;;;;;;;;;;;;;;20.58;46.18;101625.92;102093;1318;60464;-81
2022/10/08 05:29:57;;;;;;;;;;;;;;;20.58;46.20;101623.06;102145;1329;60598;-81
2022/10/08 05:32:24;;;;;;;;;;;;;;;20.58;46.25;101622.90;102088;1326;60521;-81
2022/10/08 05:34:49;;;;;;;;;;;;;;;20.58;46.17;101623.25;102093;1326;60445;-81
2022/10/08 05:37:14;;;;;;;;;;;;;;;20.58;46.22;101623.42;102115;1332;60562;-81
2022/10/08 05:39:41;;;;;;;;;;;;;;;20.58;46.26;101622.90;102122;1326;60596;-81
2022/10/08 05:42:06;;;;;;;;;;;;;;;20.58;46.30;101624.00;102113;1322;60941;-81
2022/10/08 05:44:32;;;;;;;;;;;;;;;20.58;46.26;101627.71;102128;1328;61089;-81
2022/10/08 05:46:57;;;;;;;;;;;;;;;20.58;46.25;101626.66;102136;1325;60497;-81
2022/10/08 05:49:22;;;;;;;;;;;;;;;20.58;46.28;101626.65;101991;1329;60564;-80
2022/10/08 05:51:48;;;;;;;;;;;;;;;20.58;46.24;101627.19;102093;1327;61080;-80
2022/10/08 05:54:14;;;;;;;;;;;;;;;20.58;46.37;101625.22;102187;1324;60536;-80
2022/10/08 05:56:40;;;;;;;;;;;;;;;20.58;46.31;101627.00;102159;1333;60543;-80
2022/10/08 05:59:06;;;;;;;;;;;;;;;20.58;46.33;101622.89;102137;1325;60617;-80
2022/10/08 06:01:31;;;;;;;;;;;;;;;20.58;46.28;101627.55;102159;1326;60492;-80
2022/10/08 06:03:57;;;;;;;;;;;;;;;20.58;46.38;101624.86;102112;1326;74842;-80
2022/10/08 06:06:23;;;;;;;;;;;;;;;20.58;46.43;101626.27;102133;1324;60485;-81
2022/10/08 06:08:55;;;;;;;;;;;;;;;20.59;46.33;101625.92;102192;1328;60546;-80
2022/10/08 06:11:20;;;;;;;;;;;;;;;20.59;46.34;101624.29;102209;1326;73531;-80
2022/10/08 06:13:46;;;;;;;;;;;;;;;20.59;46.36;101623.92;102113;1330;60498;-80
2022/10/08 06:16:11;;;;;;;;;;;;;;;20.59;46.41;101624.64;102122;1324;60482;-80
2022/10/08 06:18:38;;;;;;;;;;;;;;;20.59;46.48;101626.08;102108;1315;61716;-80
2022/10/08 06:21:04;;;;;;;;;;;;;;;20.59;46.36;101624.83;102168;1326;60532;-80
2022/10/08 06:23:29;;;;;;;;;;;;;;;20.59;46.30;101624.44;102153;1326;60562;-80
2022/10/08 06:25:55;;;;;;;;;;;;;;;20.59;46.39;101627.86;102206;1330;60424;-80
2022/10/08 06:28:20;;;;;;;;;;;;;;;20.59;46.50;101629.64;102124;1310;60597;-80
2022/10/08 06:30:45;;;;;;;;;;;;;;;20.59;46.45;101629.08;102081;1326;60508;-80
2022/10/08 06:33:11;;;;;;;;;;;;;;;20.60;46.43;101628.52;102083;1326;60510;-80
2022/10/08 06:35:36;;;;;;;;;;;;;;;20.60;46.41;101628.86;102211;1324;60492;-81
2022/10/08 06:38:02;;;;;;;;;;;;;;;20.60;46.51;101624.40;102171;1318;73738;-81
2022/10/08 06:40:30;;;;;;;;;;;;;;;20.60;46.46;101627.80;102259;1329;60598;-81
2022/10/08 06:42:55;;;;;;;;;;;;;;;20.60;46.45;101629.22;102221;1324;60355;-81
2022/10/08 06:45:21;;;;;;;;;;;;;;;20.61;46.49;101629.90;102231;1323;60569;-81
2022/10/08 06:47:46;;;;;;;;;;;;;;;20.61;46.44;101633.29;102125;1326;60496;-81
2022/10/08 06:50:12;;;;;;;;;;;;;;;20.62;46.36;101630.58;102053;1326;61255;-81
2022/10/08 06:52:37;;;;;;;;;;;;;;;20.62;46.40;101629.14;102109;1326;60503;-81
2022/10/08 06:55:03;;;;;;;;;;;;;;;20.63;46.46;101627.69;101978;1326;60528;-81
2022/10/08 06:57:28;;;;;;;;;;;;;;;20.63;46.43;101629.81;101887;1326;60495;-81
2022/10/08 06:59:56;;;;;;;;;;;;;;;20.63;46.50;101625.67;102007;1330;60569;-81
2022/10/08 07:02:22;;;;;;;;;;;;;;;20.64;46.40;101624.73;102011;1329;60502;-81
2022/10/08 07:04:47;;;;;;;;;;;;;;;20.65;46.46;101626.84;102004;1326;60473;-81
2022/10/08 07:07:14;;;;;;;;;;;;;;;20.65;46.67;101627.36;102044;1326;60571;-80
2022/10/08 07:09:39;;;;;;;;;;;;;;;20.66;46.57;101630.35;101907;1326;60517;-81
2022/10/08 07:12:04;;;;;;;;;;;;;;;20.67;46.69;101627.09;101965;1326;60596;-81
2022/10/08 07:14:31;;;;;;;;;;;;;;;20.68;46.58;101628.62;102048;1326;60470;-81
2022/10/08 07:16:56;;;;;;;;;;;;;;;20.69;46.71;101625.39;102049;1326;60470;-81
2022/10/08 07:19:22;;;;;;;;;;;;;;;20.69;46.69;101628.39;101975;1327;60582;-81
2022/10/08 07:21:48;;;;;;;;;;;;;;;20.70;46.82;101628.71;102067;1326;60489;-81
2022/10/08 07:24:13;;;;;;;;;;;;;;;20.71;46.76;101627.23;102056;1326;60447;-81
2022/10/08 07:26:38;;;;;;;;;;;;;;;20.71;46.74;101624.70;102139;1326;60463;-81
2022/10/08 07:29:10;;;;;;;;;;;;;;;20.72;46.77;101622.00;102086;1330;60412;-81
2022/10/08 07:31:36;;;;;;;;;;;;;;;20.72;46.69;101622.52;102110;1316;73656;-81
2022/10/08 07:34:07;;;;;;;;;;;;;;;20.73;46.81;101619.80;102047;1330;60489;-81
2022/10/08 07:36:32;;;;;;;;;;;;;;;20.73;46.85;101622.48;102095;1326;60941;-81
2022/10/08 07:38:58;;;;;;;;;;;;;;;20.74;46.79;101620.46;102084;1326;60454;-81
2022/10/08 07:41:24;;;;;;;;;;;;;;;20.74;46.85;101615.44;102065;1326;60308;-81
2022/10/08 07:43:53;;;;;;;;;;;;;;;20.74;46.98;101614.33;102052;1326;60505;-81
2022/10/08 07:46:18;;;;;;;;;;;;;;;20.75;47.04;101614.31;102124;1322;60571;-81
2022/10/08 07:48:44;;;;;;;;;;;;;;;20.75;46.93;101609.46;102117;1332;60480;-81
2022/10/08 07:51:10;;;;;;;;;;;;;;;20.75;46.98;101602.64;102095;1330;60540;-81
2022/10/08 07:53:36;;;;;;;;;;;;;;;20.76;46.90;101597.98;102075;1329;60682;-81
2022/10/08 07:56:02;;;;;;;;;;;;;;;20.76;47.12;101595.26;102086;1326;60719;-81
2022/10/08 07:58:27;;;;;;;;;;;;;;;20.76;47.11;101589.89;102166;1318;60513;-81
2022/10/08 08:00:56;;;;;;;;;;;;;;;20.77;47.06;101590.03;102166;1326;60497;-81
2022/10/08 08:03:22;;;;;;;;;;;;;;;20.78;47.14;101591.08;102073;1326;72735;-81
2022/10/08 08:05:47;;;;;;;;;;;;;;;20.78;47.02;101589.82;102072;1333;60489;-81
2022/10/08 08:08:13;;;;;;;;;;;;;;;20.78;47.11;101590.34;102099;1318;60507;-81
2022/10/08 08:10:39;;;;;;;;;;;;;;;20.79;47.10;101593.16;102115;1326;60506;-81
2022/10/08 08:13:04;;;;;;;;;;;;;;;20.79;46.97;101584.93;102105;1326;60317;-81
2022/10/08 08:15:31;;;;;;;;;;;;;;;20.79;47.02;101586.16;102071;1326;60491;-80
2022/10/08 08:17:56;;;;;;;;;;;;;;;20.80;47.16;101583.80;102207;1317;60493;-80
2022/10/08 08:20:22;;;;;;;;;;;;;;;20.80;47.14;101585.78;102218;1326;60563;-80
2022/10/08 08:22:47;;;;;;;;;;;;;;;20.80;47.07;101585.37;102157;1326;60438;-80
2022/10/08 08:25:13;;;;;;;;;;;;;;;20.81;47.04;101583.39;102157;1330;61119;-81
2022/10/08 08:27:38;;;;;;;;;;;;;;;20.81;47.09;101581.60;102108;1319;60496;-81
2022/10/08 08:30:04;;;;;;;;;;;;;;;20.81;47.10;101578.90;102184;1330;60494;-81
2022/10/08 08:32:29;;;;;;;;;;;;;;;20.82;47.11;101571.53;102185;1324;60492;-81
2022/10/08 08:34:54;;;;;;;;;;;;;;;20.82;47.12;101572.39;102183;1326;60466;-81
2022/10/08 08:37:20;;;;;;;;;;;;;;;20.82;47.18;101572.92;102221;1325;60492;-81
2022/10/08 08:39:45;;;;;;;;;;;;;;;20.83;47.26;101571.84;102225;1326;60490;-81
2022/10/08 08:42:13;;;;;;;;;;;;;;;20.83;47.19;101568.96;102166;1330;74677;-81
2022/10/08 08:44:41;;;;;;;;;;;;;;;20.83;47.10;101567.33;102148;1326;60867;-81
2022/10/08 08:47:16;;;;;;;;;;;;;;;20.83;47.13;101569.13;102121;1327;60559;-81
2022/10/08 08:49:43;;;;;;;;;;;;;;;20.84;47.24;101572.32;102074;1326;73841;-81
2022/10/08 08:52:09;;;;;;;;;;;;;;;20.84;47.29;101573.19;102111;1328;60573;-81
2022/10/08 08:54:34;;;;;;;;;;;;;;;20.84;47.27;101569.42;102130;1326;60488;-81
2022/10/08 08:57:08;;;;;;;;;;;;;;;20.85;47.22;101566.53;102146;1329;60493;-80
2022/10/08 08:59:34;;;;;;;;;;;;;;;20.85;47.29;101564.02;102117;1326;72506;-82
2022/10/08 09:02:04;;;;;;;;;;;;;;;20.85;47.24;101565.80;102138;1326;60347;-81
2022/10/08 09:04:33;;;;;;;;;;;;;;;20.85;47.28;101558.99;102153;1317;60495;-80
2022/10/08 09:07:00;;;;;;;;;;;;;;;20.85;47.41;101557.93;102145;1326;60490;-81
2022/10/08 09:09:28;;;;;;;;;;;;;;;20.85;47.17;101555.77;102151;1326;72529;-81
2022/10/08 09:11:53;;;;;;;;;;;;;;;20.86;47.30;101550.20;102154;1319;74770;-81
2022/10/08 09:14:45;;;;;;;;;;;;;;;20.85;47.37;101553.45;102005;1320;60705;-81
2022/10/08 09:17:15;;;;;;;;;;;;;;;20.85;47.44;101547.35;102003;1326;60707;-81
2022/10/08 09:19:40;;;;;;;;;;;;;;;20.86;47.49;101541.79;102497;1330;72406;-81
2022/10/08 09:22:17;;;;;;;;;;;;;;;20.86;47.42;101537.81;101801;1326;60572;-81
2022/10/08 09:24:43;;;;;;;;;;;;;;;20.87;47.45;101534.73;101998;1327;60499;-81
2022/10/08 09:27:14;;;;;;;;;;;;;;;20.88;47.40;101531.62;101975;1317;59307;-81
2022/10/08 09:29:40;;;;;;;;;;;;;;;20.88;47.43;101532.15;102030;1326;73436;-81
2022/10/08 09:32:13;;;;;;;;;;;;;;;20.89;47.47;101530.50;102057;1327;60464;-81
2022/10/08 09:34:38;;;;;;;;;;;;;;;20.90;47.37;101532.23;102032;1326;60280;-81
2022/10/08 09:37:04;;;;;;;;;;;;;;;20.90;47.51;101528.48;101971;1329;60507;-81
2022/10/08 09:39:31;;;;;;;;;;;;;;;20.90;47.39;101525.06;102069;1326;60490;-81
2022/10/08 09:42:05;;;;;;;;;;;;;;;20.90;47.32;101524.18;102123;1318;60509;-81
2022/10/08 09:44:40;;;;;;;;;;;;;;;20.89;47.41;101521.36;101965;1326;60402;-81
2022/10/08 09:47:05;;;;;;;;;;;;;;;20.89;47.45;101513.81;102072;1326;60595;-81
2022/10/08 09:49:32;;;;;;;;;;;;;;;20.90;47.24;101514.79;101932;1328;60560;-81
2022/10/08 09:51:58;;;;;;;;;;;;;;;20.89;47.41;101503.44;101939;1326;60372;-81
2022/10/08 09:54:25;;;;;;;;;;;;;;;20.89;47.39;101501.84;102028;1326;60464;-81
2022/10/08 09:56:55;;;;;;;;;;;;;;;20.90;47.63;101496.45;101997;1325;60380;-81
2022/10/08 09:59:21;;;;;;;;;;;;;;;20.90;47.55;101496.41;102070;1323;60347;-81
2022/10/08 10:01:46;;;;;;;;;;;;;;;20.90;47.59;101495.55;102093;1329;60574;-81
2022/10/08 10:04:17;;;;;;;;;;;;;;;20.90;47.31;101494.04;102010;1326;60505;-81
2022/10/08 10:06:44;;;;;;;;;;;;;;;20.89;47.54;101493.58;102055;1326;60462;-81
2022/10/08 10:09:10;;;;;;;;;;;;;;;20.90;47.46;101488.42;102041;1321;73651;-81
2022/10/08 10:11:46;;;;;;;;;;;;;;;20.89;47.57;101489.03;102100;1326;60501;-81
2022/10/08 10:14:24;;;;;;;;;;;;;;;20.89;47.45;101479.50;102114;1327;61816;-81
2022/10/08 10:16:52;;;;;;;;;;;;;;;20.89;47.25;101473.85;102059;1326;205844;-81
2022/10/08 10:19:18;;;;;;;;;;;;;;;20.89;47.41;101469.45;102085;1327;60352;-81
2022/10/08 10:21:49;;;;;;;;;;;;;;;20.88;47.28;101460.42;102096;1326;61128;-81
2022/10/08 10:24:41;;;;;;;;;;;;;;;20.87;47.30;101455.61;102099;1327;60383;-81
2022/10/08 10:27:08;;;;;;;;;;;;;;;20.88;47.31;101455.25;102071;1326;60611;-80
2022/10/08 10:29:46;;;;;;;;;;;;;;;20.88;47.23;101448.05;102101;1321;73648;-81
2022/10/08 10:32:13;;;;;;;;;;;;;;;20.88;47.33;101445.04;102250;1326;74783;-81
2022/10/08 10:34:39;;;;;;;;;;;;;;;20.88;47.20;101440.73;102230;1324;60929;-80
2022/10/08 10:37:34;;;;;;;;;;;;;;;20.87;47.42;101441.33;102105;1319;60541;-80
2022/10/08 10:40:16;;;;;;;;;;;;;;;20.88;47.31;101440.77;101775;1343;72486;-80
2022/10/08 10:42:51;;;;;;;;;;;;;;;20.87;47.43;101437.38;101808;1333;72411;-80
2022/10/08 10:45:23;;;;;;;;;;;;;;;20.87;47.27;101432.91;101831;1332;60495;-80
2022/10/08 10:47:49;;;;;;;;;;;;;;;20.87;47.28;101429.68;101890;1333;60246;-80
2022/10/08 10:50:15;;;;;;;;;;;;;;;20.87;47.31;101426.11;101789;1338;60628;-81
2022/10/08 10:53:19;;;;;;;;;;;;;;;20.87;47.31;101419.88;101803;1339;60511;-81
2022/10/08 10:55:50;;;;;;;;;;;;;;;20.87;47.32;101411.62;101663;1338;61260;-81
2022/10/08 10:58:35;;;;;;;;;;;;;;;20.87;47.31;101410.22;101655;1341;61332;-81
2022/10/08 11:01:11;;;;;;;;;;;;;;;20.87;47.16;101403.42;101727;1335;71210;-80
2022/10/08 11:03:36;;;;;;;;;;;;;;;20.87;47.31;101397.30;101798;1326;73823;-80
2022/10/08 11:06:25;;;;;;;;;;;;;;;20.86;47.20;101391.80;101901;1332;60465;-81
2022/10/08 11:09:02;;;;;;;;;;;;;;;20.87;47.28;101388.89;101823;1330;60241;-81
2022/10/08 11:11:30;;;;;;;;;;;;;;;20.87;47.25;101382.64;101835;1333;73738;-81
2022/10/08 11:14:05;;;;;;;;;;;;;;;20.87;47.24;101381.37;101913;1324;73825;-81
2022/10/08 11:16:37;;;;;;;;;;;;;;;20.87;47.17;101371.20;102044;1329;60845;-81
2022/10/08 11:19:03;;;;;;;;;;;;;;;20.88;47.13;101369.17;102153;1318;61144;-81
2022/10/08 11:21:28;;;;;;;;;;;;;;;20.87;47.31;101365.08;102096;1327;60518;-80
2022/10/08 11:24:09;;;;;;;;;;;;;;;20.88;47.18;101363.64;102149;1324;60063;-81
2022/10/08 11:26:54;;;;;;;;;;;;;;;20.88;47.18;101360.06;102254;1326;60405;-81
2022/10/08 11:29:25;;;;;;;;;;;;;;;20.87;47.26;101356.14;102150;1320;60449;-80
2022/10/08 11:31:51;;;;;;;;;;;;;;;20.88;47.26;101353.79;101958;1327;72584;-80
2022/10/08 11:34:24;;;;;;;;;;;;;;;20.88;47.24;101351.83;102103;1317;60525;-80
2022/10/08 11:36:56;;;;;;;;;;;;;;;20.89;47.14;101349.46;102074;1327;60488;-80
2022/10/08 11:39:27;;;;;;;;;;;;;;;20.88;47.25;101344.30;102128;1326;60607;-80
2022/10/08 11:42:02;;;;;;;;;;;;;;;20.88;47.11;101345.13;102079;1326;73553;-81
2022/10/08 11:44:29;;;;;;;;;;;;;;;20.88;47.09;101340.88;102018;1326;60936;-81
2022/10/08 11:47:16;;;;;;;;;;;;;;;20.89;47.17;101339.25;102043;1326;60534;-80
2022/10/08 11:49:54;;;;;;;;;;;;;;;20.89;47.26;101333.94;101874;1318;61672;-81
2022/10/08 11:52:19;;;;;;;;;;;;;;;20.90;47.15;101330.95;102090;1326;61046;-81
2022/10/08 11:54:48;;;;;;;;;;;;;;;20.90;47.27;101330.45;101989;1325;60501;-81
2022/10/08 11:57:18;;;;;;;;;;;;;;;20.90;47.18;101326.70;102082;1326;60338;-81
2022/10/08 11:59:43;;;;;;;;;;;;;;;20.90;47.20;101329.14;101962;1326;60671;-80
2022/10/08 12:02:27;;;;;;;;;;;;;;;20.90;47.14;101320.50;102010;1316;60502;-80
2022/10/08 12:04:53;;;;;;;;;;;;;;;20.90;46.97;101318.38;102058;1327;61076;-80
2022/10/08 12:07:32;;;;;;;;;;;;;;;20.90;47.13;101320.52;102099;1320;60661;-80
2022/10/08 12:09:58;;;;;;;;;;;;;;;20.90;47.12;101316.06;102125;1328;61841;-80
2022/10/08 12:12:24;;;;;;;;;;;;;;;20.90;47.08;101316.04;102039;1330;72503;-80
2022/10/08 12:14:49;;;;;;;;;;;;;;;20.90;47.12;101313.75;102099;1324;61191;-80
2022/10/08 12:17:15;;;;;;;;;;;;;;;20.90;47.14;101309.43;102122;1326;60492;-80
2022/10/08 12:19:41;;;;;;;;;;;;;;;20.90;47.16;101308.92;102063;1326;60500;-80
2022/10/08 12:22:16;;;;;;;;;;;;;;;20.90;46.98;101307.30;102127;1326;60492;-80
2022/10/08 12:24:45;;;;;;;;;;;;;;;20.90;47.05;101303.41;102167;1326;75161;-80
2022/10/08 12:27:16;;;;;;;;;;;;;;;20.90;47.03;101300.52;102129;1324;60386;-80
2022/10/08 12:29:52;;;;;;;;;;;;;;;20.90;47.06;101298.29;102094;1325;60471;-80
2022/10/08 12:32:17;;;;;;;;;;;;;;;20.89;46.95;101288.96;102021;1326;60388;-80